createdAt,value
2023-03-29T00:02:03.416Z,81.86
2023-03-29T00:04:30.069Z,81.77
2023-03-29T00:06:56.845Z,81.49
2023-03-29T00:09:23.556Z,81.98
2023-03-29T00:11:50.357Z,80.70
2023-03-29T00:14:17.009Z,80.47
2023-03-29T00:16:44.987Z,81.10
2023-03-29T00:19:11.661Z,81.91
2023-03-29T00:21:38.378Z,81.86
2023-03-29T00:24:05.101Z,81.33
2023-03-29T00:26:31.654Z,81.52
2023-03-29T00:28:58.174Z,81.47
2023-03-29T00:31:24.760Z,80.42
2023-03-29T00:33:51.419Z,80.79
2023-03-29T00:36:18.131Z,80.92
2023-03-29T00:38:44.657Z,82.13
2023-03-29T00:41:11.809Z,82.67
2023-03-29T00:43:58.692Z,82.31
2023-03-29T00:46:27.232Z,82.52
2023-03-29T00:48:58.388Z,82.71
2023-03-29T00:51:28.275Z,83.42
2023-03-29T00:53:59.794Z,82.75
2023-03-29T00:56:29.900Z,82.72
2023-03-29T00:59:09.506Z,81.98
2023-03-29T01:02:02.142Z,82.51
2023-03-29T01:04:36.926Z,81.97
2023-03-29T01:07:09.481Z,81.13
2023-03-29T01:09:40.119Z,81.44
2023-03-29T01:12:20.849Z,80.86
2023-03-29T01:14:55.088Z,81.33
2023-03-29T01:17:22.026Z,82.23
2023-03-29T01:19:58.149Z,82.73
2023-03-29T01:22:28.252Z,82.29
2023-03-29T01:25:12.551Z,82.29
2023-03-29T01:28:12.981Z,82.37
2023-03-29T01:30:45.959Z,81.80
2023-03-29T01:33:21.300Z,81.50
2023-03-29T01:36:17.435Z,82.39
2023-03-29T01:38:50.685Z,82.42
2023-03-29T01:41:17.284Z,83.00
2023-03-29T01:43:46.838Z,81.83
2023-03-29T01:46:31.942Z,81.16
2023-03-29T01:49:03.553Z,80.15
2023-03-29T01:51:38.545Z,80.79
2023-03-29T01:54:12.775Z,81.75
2023-03-29T01:56:42.193Z,80.20
2023-03-29T01:59:13.980Z,79.98
2023-03-29T02:01:49.677Z,80.49
2023-03-29T02:04:19.934Z,79.89
2023-03-29T02:06:46.721Z,79.19
2023-03-29T02:09:13.644Z,79.77
2023-03-29T02:11:44.896Z,80.59
2023-03-29T02:14:11.584Z,80.94
2023-03-29T02:16:39.144Z,80.50
2023-03-29T02:19:08.244Z,78.86
2023-03-29T02:21:48.162Z,78.58
2023-03-29T02:24:18.034Z,78.64
2023-03-29T02:26:44.774Z,79.01
2023-03-29T02:29:11.704Z,78.98
2023-03-29T02:31:43.710Z,79.45
2023-03-29T02:34:13.257Z,79.25
2023-03-29T02:36:55.453Z,78.86
2023-03-29T02:39:25.281Z,79.04
2023-03-29T02:41:53.612Z,79.37
2023-03-29T02:44:24.283Z,79.54
2023-03-29T02:46:56.634Z,78.75
2023-03-29T02:49:23.939Z,79.04
2023-03-29T02:51:54.853Z,79.39
2023-03-29T02:54:29.880Z,79.39
2023-03-29T02:57:01.754Z,78.48
2023-03-29T02:59:29.962Z,79.53
2023-03-29T03:01:56.744Z,78.94
2023-03-29T03:04:23.425Z,78.81
2023-03-29T03:06:50.054Z,78.06
2023-03-29T03:09:17.158Z,78.28
2023-03-29T03:11:44.074Z,78.90
2023-03-29T03:14:11.016Z,78.06
2023-03-29T03:16:37.634Z,79.03
2023-03-29T03:19:06.005Z,79.07
2023-03-29T03:21:33.549Z,78.08
2023-03-29T03:24:00.127Z,78.09
2023-03-29T03:26:30.179Z,77.48
2023-03-29T03:28:57.107Z,78.13
2023-03-29T03:31:24.450Z,78.22
2023-03-29T03:33:50.961Z,78.91
2023-03-29T03:36:17.470Z,78.79
2023-03-29T03:38:44.149Z,78.68
2023-03-29T03:41:10.827Z,79.26
2023-03-29T03:43:37.490Z,78.76
2023-03-29T03:46:04.302Z,78.75
2023-03-29T03:48:31.636Z,79.15
2023-03-29T03:50:59.143Z,78.76
2023-03-29T03:53:27.318Z,79.42
2023-03-29T03:55:56.028Z,79.80
2023-03-29T03:58:22.870Z,79.34
2023-03-29T04:00:50.696Z,78.92
2023-03-29T04:03:17.949Z,79.37
2023-03-29T04:05:46.122Z,79.03
2023-03-29T04:08:13.498Z,79.11
2023-03-29T04:10:40.639Z,78.31
2023-03-29T04:13:07.724Z,78.64
2023-03-29T04:15:38.742Z,78.99
2023-03-29T04:18:07.490Z,79.08
2023-03-29T04:20:34.338Z,79.47
2023-03-29T04:23:01.050Z,79.12
2023-03-29T04:25:27.635Z,77.98
2023-03-29T04:27:54.216Z,77.25
2023-03-29T04:30:21.086Z,76.89
2023-03-29T04:32:47.963Z,77.17
2023-03-29T04:35:14.702Z,77.44
2023-03-29T04:37:41.821Z,77.15
2023-03-29T04:40:09.998Z,76.33
2023-03-29T04:42:37.682Z,76.70
2023-03-29T04:45:07.215Z,76.79
2023-03-29T04:47:36.349Z,76.08
2023-03-29T04:50:03.428Z,75.68
2023-03-29T04:52:33.144Z,76.61
2023-03-29T04:55:04.855Z,76.58
2023-03-29T04:57:31.665Z,76.25
2023-03-29T04:59:58.261Z,76.43
2023-03-29T05:02:24.839Z,76.93
2023-03-29T05:04:51.458Z,76.71
2023-03-29T05:07:19.131Z,75.66
2023-03-29T05:09:45.682Z,76.24
2023-03-29T05:12:12.271Z,76.22
2023-03-29T05:14:38.815Z,75.20
2023-03-29T05:17:06.420Z,75.81
2023-03-29T05:19:33.631Z,75.65
2023-03-29T05:22:00.770Z,75.21
2023-03-29T05:24:27.432Z,75.14
2023-03-29T05:26:53.943Z,75.62
2023-03-29T05:29:20.669Z,75.08
2023-03-29T05:31:47.298Z,74.90
2023-03-29T05:34:13.865Z,75.04
2023-03-29T05:36:40.435Z,74.26
2023-03-29T05:39:07.424Z,74.91
2023-03-29T05:41:34.552Z,74.09
2023-03-29T05:44:01.595Z,74.68
2023-03-29T05:46:28.180Z,74.92
2023-03-29T05:48:54.733Z,75.19
2023-03-29T05:51:24.364Z,73.69
2023-03-29T05:53:51.713Z,73.71
2023-03-29T05:56:19.099Z,74.21
2023-03-29T05:58:49.516Z,73.78
2023-03-29T06:01:18.732Z,74.37
2023-03-29T06:03:48.162Z,73.80
2023-03-29T06:06:16.495Z,73.20
2023-03-29T06:08:44.181Z,72.30
2023-03-29T06:11:13.336Z,73.61
2023-03-29T06:13:42.204Z,72.06
2023-03-29T06:16:10.575Z,71.18
2023-03-29T06:18:38.143Z,72.12
2023-03-29T06:21:05.106Z,70.74
2023-03-29T06:23:32.119Z,71.28
2023-03-29T06:26:00.146Z,70.92
2023-03-29T06:28:26.844Z,69.96
2023-03-29T06:31:02.722Z,70.06
2023-03-29T06:33:30.838Z,68.86
2023-03-29T06:35:57.694Z,68.43
2023-03-29T06:38:45.957Z,68.53
2023-03-29T06:41:12.670Z,68.46
2023-03-29T06:43:39.374Z,68.60
2023-03-29T06:46:11.773Z,69.37
2023-03-29T06:48:39.515Z,68.96
2023-03-29T06:51:07.591Z,69.01
2023-03-29T06:53:34.706Z,68.18
2023-03-29T06:56:05.325Z,66.65
2023-03-29T06:58:31.912Z,67.20
2023-03-29T07:01:02.576Z,67.50
2023-03-29T07:03:29.960Z,67.82
2023-03-29T07:06:03.539Z,67.83
2023-03-29T07:08:35.210Z,68.27
2023-03-29T07:11:03.282Z,66.67
2023-03-29T07:13:30.490Z,65.85
2023-03-29T07:15:57.496Z,67.47
2023-03-29T07:18:24.093Z,68.00
2023-03-29T07:20:52.078Z,67.06
2023-03-29T07:23:18.686Z,66.07
2023-03-29T07:25:45.326Z,67.28
2023-03-29T07:28:11.858Z,67.43
2023-03-29T07:30:38.512Z,67.87
2023-03-29T07:33:05.148Z,66.12
2023-03-29T07:35:32.794Z,66.19
2023-03-29T07:37:59.586Z,67.42
2023-03-29T07:40:27.216Z,66.56
2023-03-29T07:42:56.649Z,66.75
2023-03-29T07:45:27.537Z,66.11
2023-03-29T07:47:57.175Z,66.57
2023-03-29T07:50:24.726Z,66.77
2023-03-29T07:52:51.620Z,65.15
2023-03-29T07:55:18.501Z,64.47
2023-03-29T07:57:45.285Z,63.98
2023-03-29T08:00:16.832Z,63.98
2023-03-29T08:02:47.988Z,64.10
2023-03-29T08:05:18.972Z,64.89
2023-03-29T08:07:50.526Z,66.77
2023-03-29T08:10:19.335Z,68.26
2023-03-29T08:12:49.399Z,68.68
2023-03-29T08:15:16.623Z,68.64
2023-03-29T08:17:43.632Z,68.79
2023-03-29T08:20:13.485Z,67.13
2023-03-29T08:22:40.427Z,67.53
2023-03-29T08:25:07.820Z,67.21
2023-03-29T08:27:35.133Z,67.33
2023-03-29T08:30:01.683Z,68.15
2023-03-29T08:32:28.282Z,66.32
2023-03-29T08:34:55.108Z,68.28
2023-03-29T08:37:21.905Z,68.47
2023-03-29T08:39:48.490Z,68.51
2023-03-29T08:42:30.024Z,67.62
2023-03-29T08:45:33.829Z,68.62
2023-03-29T08:48:23.790Z,67.73
2023-03-29T08:50:54.192Z,67.53
2023-03-29T08:53:28.873Z,67.50
2023-03-29T08:55:59.746Z,67.03
2023-03-29T08:58:31.506Z,65.98
2023-03-29T09:01:00.751Z,68.00
2023-03-29T09:03:35.654Z,65.96
2023-03-29T09:06:10.855Z,66.52
2023-03-29T09:08:45.110Z,64.69
2023-03-29T09:11:23.547Z,66.76
2023-03-29T09:14:22.140Z,64.91
2023-03-29T09:17:13.516Z,64.03
2023-03-29T09:20:03.194Z,63.62
2023-03-29T09:22:47.249Z,64.91
2023-03-29T09:25:53.639Z,66.49
2023-03-29T09:28:31.069Z,65.46
2023-03-29T09:31:06.048Z,64.05
2023-03-29T09:33:44.253Z,64.87
2023-03-29T09:36:30.957Z,65.66
2023-03-29T09:38:57.488Z,65.76
2023-03-29T09:41:44.071Z,63.47
2023-03-29T09:46:54.233Z,59.82
2023-03-29T09:49:26.691Z,63.21
2023-03-29T09:51:57.482Z,63.19
2023-03-29T09:54:24.288Z,64.03
2023-03-29T09:56:52.741Z,62.50
2023-03-29T09:59:19.462Z,63.04
2023-03-29T10:01:46.149Z,64.87
2023-03-29T10:04:13.821Z,63.96
2023-03-29T10:06:50.284Z,63.47
2023-03-29T10:09:20.875Z,62.32
2023-03-29T10:11:55.163Z,61.56
2023-03-29T10:14:33.850Z,61.86
2023-03-29T10:17:00.675Z,60.69
2023-03-29T10:19:35.242Z,60.38
2023-03-29T10:22:08.099Z,60.76
2023-03-29T10:24:34.645Z,60.88
2023-03-29T10:27:04.475Z,60.44
2023-03-29T10:29:42.335Z,61.50
2023-03-29T10:32:24.037Z,60.51
2023-03-29T10:34:52.111Z,61.64
2023-03-29T10:37:19.797Z,58.67
2023-03-29T10:39:48.129Z,57.86
2023-03-29T10:42:20.481Z,55.88
2023-03-29T10:44:56.818Z,58.46
2023-03-29T10:47:24.170Z,61.54
2023-03-29T10:49:56.479Z,58.70
2023-03-29T10:52:23.647Z,59.81
2023-03-29T10:54:52.864Z,58.30
2023-03-29T10:57:48.543Z,54.71
2023-03-29T11:00:23.675Z,54.22
2023-03-29T11:03:07.509Z,55.84
2023-03-29T11:05:44.885Z,56.36
2023-03-29T11:08:28.492Z,59.53
2023-03-29T11:11:18.711Z,60.23
2023-03-29T11:14:02.253Z,59.95
2023-03-29T11:16:50.992Z,60.43
2023-03-29T11:19:35.895Z,57.25
2023-03-29T11:22:09.797Z,56.92
2023-03-29T11:24:39.330Z,56.09
2023-03-29T11:27:24.264Z,55.04
2023-03-29T11:30:03.269Z,55.94
2023-03-29T11:32:41.997Z,53.67
2023-03-29T11:35:24.656Z,50.39
2023-03-29T11:37:57.239Z,54.02
2023-03-29T11:40:45.469Z,54.84
2023-03-29T11:43:20.845Z,56.58
2023-03-29T11:45:55.887Z,59.03
2023-03-29T11:48:29.890Z,56.69
2023-03-29T11:51:26.523Z,54.28
2023-03-29T11:54:03.337Z,54.41
2023-03-29T11:56:32.950Z,57.21
2023-03-29T11:59:07.467Z,54.88
2023-03-29T12:01:42.299Z,55.23
2023-03-29T12:04:27.328Z,56.63
2023-03-29T12:07:18.910Z,55.22
2023-03-29T12:09:53.237Z,55.55
2023-03-29T12:12:27.157Z,57.31
2023-03-29T12:15:04.847Z,57.01
2023-03-29T12:17:37.944Z,56.31
2023-03-29T12:20:23.410Z,55.49
2023-03-29T12:22:50.982Z,53.43
2023-03-29T12:25:23.940Z,56.12
2023-03-29T12:28:08.890Z,54.93
2023-03-29T12:30:55.123Z,56.05
2023-03-29T12:33:32.709Z,56.27
2023-03-29T12:36:16.589Z,54.84
2023-03-29T12:38:45.000Z,54.20
2023-03-29T12:41:19.868Z,55.67
2023-03-29T12:43:46.989Z,52.74
2023-03-29T12:46:25.619Z,54.02
2023-03-29T12:48:58.490Z,53.08
2023-03-29T12:51:33.072Z,55.15
2023-03-29T12:54:07.368Z,55.15
2023-03-29T12:56:42.054Z,57.42
2023-03-29T12:59:25.648Z,56.46
2023-03-29T13:01:58.998Z,57.05
2023-03-29T13:04:37.521Z,58.46
2023-03-29T13:07:04.535Z,58.83
2023-03-29T13:09:36.678Z,58.19
2023-03-29T13:12:15.762Z,57.19
2023-03-29T13:14:50.964Z,57.75
2023-03-29T13:17:41.756Z,56.86
2023-03-29T13:20:14.231Z,56.94
2023-03-29T13:22:59.645Z,56.47
2023-03-29T13:26:02.237Z,54.87
2023-03-29T13:29:04.754Z,56.59
2023-03-29T13:31:46.744Z,56.96
2023-03-29T13:34:40.362Z,54.70
2023-03-29T13:37:22.069Z,54.12
2023-03-29T13:39:51.663Z,55.92
2023-03-29T13:42:21.583Z,56.76
2023-03-29T13:44:51.546Z,57.66
2023-03-29T13:48:04.331Z,56.73
2023-03-29T13:50:40.737Z,55.92
2023-03-29T13:53:19.763Z,57.21
2023-03-29T13:55:51.061Z,57.31
2023-03-29T13:58:43.485Z,56.20
2023-03-29T14:01:17.080Z,56.60
2023-03-29T14:03:46.846Z,56.07
2023-03-29T14:06:17.676Z,57.11
2023-03-29T14:08:44.815Z,56.45
2023-03-29T14:11:25.069Z,57.31
2023-03-29T14:13:57.072Z,56.01
2023-03-29T14:16:31.597Z,56.58
2023-03-29T14:19:21.562Z,55.94
2023-03-29T14:21:52.132Z,56.79
2023-03-29T14:24:26.036Z,56.96
2023-03-29T14:26:54.021Z,58.10
2023-03-29T14:29:21.902Z,56.97
2023-03-29T14:31:50.280Z,57.76
2023-03-29T14:34:18.598Z,56.85
2023-03-29T14:36:48.772Z,57.44
2023-03-29T14:39:23.412Z,58.49
2023-03-29T14:41:55.394Z,58.71
2023-03-29T14:44:24.847Z,58.83
2023-03-29T14:46:51.962Z,58.62
2023-03-29T14:49:20.708Z,57.85
2023-03-29T14:51:49.244Z,58.21
2023-03-29T14:54:26.944Z,58.06
2023-03-29T14:56:54.106Z,57.10
2023-03-29T14:59:27.113Z,57.63
2023-03-29T15:01:53.975Z,57.54
2023-03-29T15:04:20.807Z,56.64
2023-03-29T15:06:50.619Z,57.48
2023-03-29T15:09:29.976Z,57.01
2023-03-29T15:11:59.914Z,57.95
2023-03-29T15:14:33.706Z,58.48
2023-03-29T15:17:24.075Z,59.61
2023-03-29T15:19:59.715Z,61.13
2023-03-29T15:22:34.251Z,60.06
2023-03-29T15:25:01.712Z,59.23
2023-03-29T15:27:28.657Z,59.09
2023-03-29T15:30:04.627Z,58.52
2023-03-29T15:32:35.149Z,58.67
2023-03-29T15:35:02.811Z,60.30
2023-03-29T15:37:29.325Z,61.44
2023-03-29T15:39:56.718Z,62.06
2023-03-29T15:42:24.470Z,61.28
2023-03-29T15:44:54.999Z,61.08
2023-03-29T15:47:22.103Z,62.34
2023-03-29T15:49:48.668Z,61.19
2023-03-29T15:52:15.398Z,61.54
2023-03-29T15:54:42.430Z,61.88
2023-03-29T15:57:13.877Z,62.50
2023-03-29T15:59:40.928Z,62.16
2023-03-29T16:02:15.704Z,62.01
2023-03-29T16:04:43.313Z,61.94
2023-03-29T16:07:15.975Z,62.76
2023-03-29T16:09:43.689Z,62.04
2023-03-29T16:12:10.402Z,62.43
2023-03-29T16:14:37.267Z,62.73
2023-03-29T16:17:04.787Z,62.89
2023-03-29T16:19:36.371Z,62.40
2023-03-29T16:22:07.094Z,62.01
2023-03-29T16:24:35.191Z,62.91
2023-03-29T16:27:02.714Z,62.14
2023-03-29T16:29:29.708Z,62.42
2023-03-29T16:31:57.198Z,61.42
2023-03-29T16:34:24.191Z,60.76
2023-03-29T16:36:50.918Z,62.50
2023-03-29T16:39:18.266Z,62.05
2023-03-29T16:41:48.350Z,61.47
2023-03-29T16:44:23.621Z,61.70
2023-03-29T16:46:54.349Z,61.29
2023-03-29T16:49:21.548Z,61.66
2023-03-29T16:51:48.275Z,61.66
2023-03-29T16:54:17.210Z,61.98
2023-03-29T16:56:43.801Z,62.69
2023-03-29T16:59:10.512Z,62.39
2023-03-29T17:01:37.277Z,63.39
2023-03-29T17:04:04.556Z,63.07
2023-03-29T17:06:32.661Z,63.65
2023-03-29T17:09:00.619Z,64.53
2023-03-29T17:11:28.410Z,65.10
2023-03-29T17:13:55.785Z,65.33
2023-03-29T17:16:22.465Z,65.39
2023-03-29T17:18:49.152Z,65.66
2023-03-29T17:21:16.104Z,66.03
2023-03-29T17:23:42.955Z,66.18
2023-03-29T17:26:09.543Z,66.28
2023-03-29T17:28:36.241Z,66.07
2023-03-29T17:31:05.190Z,67.42
2023-03-29T17:33:35.053Z,67.64
2023-03-29T17:36:02.348Z,67.49
2023-03-29T17:38:30.688Z,68.39
2023-03-29T17:40:57.265Z,68.56
2023-03-29T17:43:23.939Z,68.61
2023-03-29T17:45:52.021Z,68.90
2023-03-29T17:48:19.372Z,68.57
2023-03-29T17:50:46.005Z,68.96
2023-03-29T17:53:13.413Z,68.93
2023-03-29T17:55:40.961Z,70.02
2023-03-29T17:58:07.865Z,69.52
2023-03-29T18:00:34.614Z,69.72
2023-03-29T18:03:01.316Z,69.86
2023-03-29T18:05:27.967Z,70.38
2023-03-29T18:08:08.171Z,70.80
2023-03-29T18:10:36.764Z,71.19
2023-03-29T18:13:03.624Z,70.43
2023-03-29T18:15:30.349Z,70.25
2023-03-29T18:17:57.744Z,70.05
2023-03-29T18:20:24.315Z,71.14
2023-03-29T18:22:51.151Z,70.67
2023-03-29T18:25:18.330Z,70.44
2023-03-29T18:27:45.001Z,71.04
2023-03-29T18:30:13.882Z,71.53
2023-03-29T18:32:40.588Z,71.56
2023-03-29T18:35:07.655Z,71.34
2023-03-29T18:37:34.278Z,71.04
2023-03-29T18:40:00.970Z,71.66
2023-03-29T18:42:27.564Z,71.10
2023-03-29T18:44:54.127Z,70.95
2023-03-29T18:47:20.697Z,70.56
2023-03-29T18:49:47.274Z,71.39
2023-03-29T18:52:15.956Z,71.02
2023-03-29T18:54:42.567Z,70.95
2023-03-29T18:57:09.383Z,70.98
2023-03-29T18:59:36.576Z,71.15
2023-03-29T19:02:03.368Z,72.10
2023-03-29T19:04:30.034Z,71.58
2023-03-29T19:06:56.667Z,72.67
2023-03-29T19:09:23.227Z,72.13
2023-03-29T19:11:49.838Z,73.28
2023-03-29T19:14:17.434Z,73.55
2023-03-29T19:16:44.018Z,73.55
2023-03-29T19:19:10.759Z,72.04
2023-03-29T19:21:38.529Z,72.54
2023-03-29T19:24:07.660Z,72.26
2023-03-29T19:26:34.352Z,72.32
2023-03-29T19:29:01.132Z,73.07
2023-03-29T19:31:27.912Z,73.53
2023-03-29T19:33:55.021Z,71.71
2023-03-29T19:36:22.204Z,71.58
2023-03-29T19:38:48.793Z,72.45
2023-03-29T19:41:15.319Z,72.87
2023-03-29T19:43:41.971Z,73.44
2023-03-29T19:46:11.052Z,73.31
2023-03-29T19:48:39.232Z,73.85
2023-03-29T19:51:06.041Z,74.33
2023-03-29T19:53:32.862Z,74.46
2023-03-29T19:55:59.659Z,74.92
2023-03-29T19:58:26.200Z,75.15
2023-03-29T20:00:53.891Z,75.26
2023-03-29T20:03:21.792Z,74.84
2023-03-29T20:05:48.336Z,75.17
2023-03-29T20:08:14.865Z,75.82
2023-03-29T20:10:41.599Z,74.57
2023-03-29T20:13:08.324Z,74.83
2023-03-29T20:15:35.317Z,74.44
2023-03-29T20:18:02.013Z,74.54
2023-03-29T20:20:29.923Z,74.15
2023-03-29T20:23:04.672Z,73.07
2023-03-29T20:25:32.399Z,73.05
2023-03-29T20:27:59.671Z,72.44
2023-03-29T20:30:26.556Z,73.93
2023-03-29T20:32:53.320Z,74.48
2023-03-29T20:35:19.949Z,74.32
2023-03-29T20:37:46.444Z,72.94
2023-03-29T20:40:15.624Z,73.29
2023-03-29T20:42:42.533Z,73.33
2023-03-29T20:45:18.670Z,73.25
2023-03-29T20:47:57.472Z,73.37
2023-03-29T20:50:28.815Z,73.83
2023-03-29T20:52:56.645Z,73.22
2023-03-29T20:55:23.516Z,73.71
2023-03-29T20:57:54.067Z,73.55
2023-03-29T21:00:21.009Z,73.51
2023-03-29T21:02:47.729Z,73.87
2023-03-29T21:05:15.295Z,74.26
2023-03-29T21:07:44.740Z,74.08
2023-03-29T21:10:12.369Z,73.41
2023-03-29T21:12:40.015Z,74.01
2023-03-29T21:15:08.807Z,74.20
2023-03-29T21:17:36.412Z,74.21
2023-03-29T21:20:07.368Z,73.90
2023-03-29T21:22:34.958Z,74.11
2023-03-29T21:25:01.715Z,74.62
2023-03-29T21:27:28.287Z,74.26
2023-03-29T21:29:54.853Z,74.63
2023-03-29T21:32:21.417Z,74.10
2023-03-29T21:34:47.986Z,74.10
2023-03-29T21:37:15.274Z,74.02
2023-03-29T21:39:41.901Z,74.93
2023-03-29T21:42:08.456Z,74.61
2023-03-29T21:44:34.985Z,74.24
2023-03-29T21:47:01.721Z,74.66
2023-03-29T21:49:30.605Z,75.04
2023-03-29T21:51:57.119Z,75.10
2023-03-29T21:54:23.778Z,75.46
2023-03-29T21:56:50.554Z,76.14
2023-03-29T21:59:17.071Z,75.25
2023-03-29T22:01:43.644Z,75.39
2023-03-29T22:04:10.331Z,74.59
2023-03-29T22:06:36.990Z,75.48
2023-03-29T22:09:05.114Z,76.01
2023-03-29T22:11:33.695Z,75.67
2023-03-29T22:14:00.275Z,75.56
2023-03-29T22:16:28.376Z,75.79
2023-03-29T22:18:55.179Z,76.44
2023-03-29T22:21:24.271Z,76.13
2023-03-29T22:23:54.065Z,75.98
2023-03-29T22:26:23.559Z,75.78
2023-03-29T22:28:51.707Z,75.70
2023-03-29T22:31:20.730Z,75.81
2023-03-29T22:33:47.767Z,75.36
2023-03-29T22:36:21.024Z,76.29
2023-03-29T22:38:49.139Z,76.03
2023-03-29T22:41:18.212Z,76.05
2023-03-29T22:43:45.348Z,75.44
2023-03-29T22:46:13.920Z,75.59
2023-03-29T22:48:40.732Z,75.56
2023-03-29T22:51:07.529Z,75.50
2023-03-29T22:53:34.191Z,75.03
2023-03-29T22:56:00.874Z,75.94
2023-03-29T22:58:29.395Z,75.41
2023-03-29T23:00:57.640Z,75.45
2023-03-29T23:03:24.377Z,76.37
2023-03-29T23:05:56.337Z,75.92
2023-03-29T23:08:24.181Z,74.84
2023-03-29T23:10:51.136Z,74.68
2023-03-29T23:13:25.817Z,74.87
2023-03-29T23:15:54.741Z,74.72
2023-03-29T23:18:23.535Z,74.47
2023-03-29T23:20:53.185Z,74.60
2023-03-29T23:23:20.518Z,75.05
2023-03-29T23:25:48.852Z,75.27
2023-03-29T23:28:21.486Z,76.02
2023-03-29T23:30:55.183Z,75.73
2023-03-29T23:33:21.950Z,76.14
2023-03-29T23:35:48.587Z,74.96
2023-03-29T23:38:15.187Z,75.98
2023-03-29T23:40:41.698Z,76.37
2023-03-29T23:43:09.056Z,76.46
2023-03-29T23:45:36.789Z,75.75
2023-03-29T23:48:03.679Z,75.31
2023-03-29T23:50:30.448Z,75.66
2023-03-29T23:52:58.301Z,77.11
2023-03-29T23:55:25.009Z,77.09
2023-03-29T23:57:51.761Z,77.29
